sensor_id;sensor_type;location;lat;lon;timestamp;pressure;altitude;pressure_sealevel;temperature
66113;BMP280;52893;52.870;5.822;2023-05-16T00:01:01;101864.78;;;10.81
66113;BMP280;52893;52.870;5.822;2023-05-16T00:03:28;101862.03;;;10.81
66113;BMP280;52893;52.870;5.822;2023-05-16T00:05:57;101866.97;;;10.79
66113;BMP280;52893;52.870;5.822;2023-05-16T00:08:27;101870.81;;;10.78
66113;BMP280;52893;52.870;5.822;2023-05-16T00:10:54;101869.19;;;10.77
66113;BMP280;52893;52.870;5.822;2023-05-16T00:13:22;101873.03;;;10.76
66113;BMP280;52893;52.870;5.822;2023-05-16T00:15:51;101886.38;;;10.78
66113;BMP280;52893;52.870;5.822;2023-05-16T00:18:18;101878.00;;;10.74
66113;BMP280;52893;52.870;5.822;2023-05-16T00:20:47;101880.72;;;10.74
66113;BMP280;52893;52.870;5.822;2023-05-16T00:23:15;101881.31;;;10.71
66113;BMP280;52893;52.870;5.822;2023-05-16T00:25:42;101879.13;;;10.73
66113;BMP280;52893;52.870;5.822;2023-05-16T00:28:11;101886.78;;;10.71
66113;BMP280;52893;52.870;5.822;2023-05-16T00:30:38;101884.06;;;10.71
66113;BMP280;52893;52.870;5.822;2023-05-16T00:33:05;101886.78;;;10.71
66113;BMP280;52893;52.870;5.822;2023-05-16T00:35:33;101882.97;;;10.72
66113;BMP280;52893;52.870;5.822;2023-05-16T00:38:00;101876.97;;;10.70
66113;BMP280;52893;52.870;5.822;2023-05-16T00:40:29;101873.72;;;10.68
66113;BMP280;52893;52.870;5.822;2023-05-16T00:42:56;101883.00;;;10.67
66113;BMP280;52893;52.870;5.822;2023-05-16T00:45:23;101881.38;;;10.66
66113;BMP280;52893;52.870;5.822;2023-05-16T00:47:51;101873.00;;;10.62
66113;BMP280;52893;52.870;5.822;2023-05-16T00:50:18;101884.22;;;10.61
66113;BMP280;52893;52.870;5.822;2023-05-16T00:52:46;101885.31;;;10.60
66113;BMP280;52893;52.870;5.822;2023-05-16T00:55:13;101895.44;;;10.59
66113;BMP280;52893;52.870;5.822;2023-05-16T00:57:42;101883.53;;;10.55
66113;BMP280;52893;52.870;5.822;2023-05-16T01:00:11;101871.63;;;10.46
66113;BMP280;52893;52.870;5.822;2023-05-16T01:02:40;101883.53;;;10.55
66113;BMP280;52893;52.870;5.822;2023-05-16T01:05:08;101888.97;;;10.55
66113;BMP280;52893;52.870;5.822;2023-05-16T01:07:35;101883.53;;;10.55
66113;BMP280;52893;52.870;5.822;2023-05-16T01:10:03;101891.19;;;10.53
66113;BMP280;52893;52.870;5.822;2023-05-16T01:12:36;101883.28;;;10.52
66113;BMP280;52893;52.870;5.822;2023-05-16T01:15:08;101877.59;;;10.48
66113;BMP280;52893;52.870;5.822;2023-05-16T01:17:44;101881.16;;;10.49
66113;BMP280;52893;52.870;5.822;2023-05-16T01:20:23;101878.50;;;10.44
66113;BMP280;52893;52.870;5.822;2023-05-16T01:23:04;101887.41;;;10.49
66113;BMP280;52893;52.870;5.822;2023-05-16T01:25:52;101885.47;;;10.50
66113;BMP280;52893;52.870;5.822;2023-05-16T01:28:24;101884.66;;;10.49
66113;BMP280;52893;52.870;5.822;2023-05-16T01:30:52;101886.28;;;10.50
66113;BMP280;52893;52.870;5.822;2023-05-16T01:33:19;101878.41;;;10.49
66113;BMP280;52893;52.870;5.822;2023-05-16T01:35:54;101880.94;;;10.45
66113;BMP280;52893;52.870;5.822;2023-05-16T01:38:25;101876.94;;;10.38
66113;BMP280;52893;52.870;5.822;2023-05-16T01:40:58;101892.16;;;10.44
66113;BMP280;52893;52.870;5.822;2023-05-16T01:43:32;101884.25;;;10.42
66113;BMP280;52893;52.870;5.822;2023-05-16T01:46:04;101877.97;;;10.42
66113;BMP280;52893;52.870;5.822;2023-05-16T01:48:36;101881.84;;;10.41
66113;BMP280;52893;52.870;5.822;2023-05-16T01:51:05;101887.88;;;10.38
66113;BMP280;52893;52.870;5.822;2023-05-16T01:53:36;101882.41;;;10.38
66113;BMP280;52893;52.870;5.822;2023-05-16T01:56:09;101896.38;;;10.36
66113;BMP280;52893;52.870;5.822;2023-05-16T01:58:40;101892.28;;;10.34
66113;BMP280;52893;52.870;5.822;2023-05-16T02:01:08;101884.19;;;10.29
66113;BMP280;52893;52.870;5.822;2023-05-16T02:03:36;101887.50;;;10.25
66113;BMP280;52893;52.870;5.822;2023-05-16T02:06:04;101889.75;;;10.23
66113;BMP280;52893;52.870;5.822;2023-05-16T02:08:31;101891.88;;;10.27
66113;BMP280;52893;52.870;5.822;2023-05-16T02:10:58;101889.56;;;10.34
66113;BMP280;52893;52.870;5.822;2023-05-16T02:13:25;101888.69;;;10.38
66113;BMP280;52893;52.870;5.822;2023-05-16T02:15:54;101893.84;;;10.40
66113;BMP280;52893;52.870;5.822;2023-05-16T02:18:21;101896.06;;;10.38
66113;BMP280;52893;52.870;5.822;2023-05-16T02:20:49;101891.19;;;10.35
66113;BMP280;52893;52.870;5.822;2023-05-16T02:23:16;101894.53;;;10.32
66113;BMP280;52893;52.870;5.822;2023-05-16T02:25:44;101892.69;;;10.27
66113;BMP280;52893;52.870;5.822;2023-05-16T02:28:11;101894.88;;;10.25
66113;BMP280;52893;52.870;5.822;2023-05-16T02:30:38;101906.41;;;10.22
66113;BMP280;52893;52.870;5.822;2023-05-16T02:33:07;101906.16;;;10.18
66113;BMP280;52893;52.870;5.822;2023-05-16T02:35:35;101892.84;;;10.17
66113;BMP280;52893;52.870;5.822;2023-05-16T02:38:02;101898.28;;;10.17
66113;BMP280;52893;52.870;5.822;2023-05-16T02:40:29;101898.28;;;10.17
66113;BMP280;52893;52.870;5.822;2023-05-16T02:42:56;101889.28;;;10.16
66113;BMP280;52893;52.870;5.822;2023-05-16T02:45:24;101899.69;;;10.14
66113;BMP280;52893;52.870;5.822;2023-05-16T02:47:51;101904.06;;;10.15
66113;BMP280;52893;52.870;5.822;2023-05-16T02:50:20;101904.34;;;10.14
66113;BMP280;52893;52.870;5.822;2023-05-16T02:52:47;101904.09;;;10.10
66113;BMP280;52893;52.870;5.822;2023-05-16T02:55:15;101901.91;;;10.12
66113;BMP280;52893;52.870;5.822;2023-05-16T02:57:42;101901.09;;;10.12
66113;BMP280;52893;52.870;5.822;2023-05-16T03:00:12;101902.72;;;10.13
66113;BMP280;52893;52.870;5.822;2023-05-16T03:02:39;101902.44;;;10.14
66113;BMP280;52893;52.870;5.822;2023-05-16T03:05:07;101910.63;;;10.14
66113;BMP280;52893;52.870;5.822;2023-05-16T03:07:36;101896.97;;;10.14
66113;BMP280;52893;52.870;5.822;2023-05-16T03:10:05;101902.44;;;10.14
66113;BMP280;52893;52.870;5.822;2023-05-16T03:12:33;101907.88;;;10.14
66113;BMP280;52893;52.870;5.822;2023-05-16T03:15:00;101896.44;;;10.12
66113;BMP280;52893;52.870;5.822;2023-05-16T03:17:29;101910.09;;;10.12
66113;BMP280;52893;52.870;5.822;2023-05-16T03:19:56;101911.19;;;10.11
66113;BMP280;52893;52.870;5.822;2023-05-16T03:22:23;101905.50;;;10.08
66113;BMP280;52893;52.870;5.822;2023-05-16T03:24:52;101915.81;;;10.11
66113;BMP280;52893;52.870;5.822;2023-05-16T03:27:19;101912.81;;;10.12
66113;BMP280;52893;52.870;5.822;2023-05-16T03:29:49;101909.50;;;10.15
66113;BMP280;52893;52.870;5.822;2023-05-16T03:32:16;101913.78;;;10.21
66113;BMP280;52893;52.870;5.822;2023-05-16T03:34:43;101912.06;;;10.25
66113;BMP280;52893;52.870;5.822;2023-05-16T03:37:11;101921.56;;;10.28
66113;BMP280;52893;52.870;5.822;2023-05-16T03:39:39;101911.78;;;10.27
66113;BMP280;52893;52.870;5.822;2023-05-16T03:42:08;101924.63;;;10.27
66113;BMP280;52893;52.870;5.822;2023-05-16T03:44:35;101901.91;;;10.12
66113;BMP280;52893;52.870;5.822;2023-05-16T03:47:03;101922.53;;;10.18
66113;BMP280;52893;52.870;5.822;2023-05-16T03:49:31;101928.63;;;10.15
66113;BMP280;52893;52.870;5.822;2023-05-16T03:51:58;101930.81;;;10.13
66113;BMP280;52893;52.870;5.822;2023-05-16T03:54:25;101938.47;;;10.11
66113;BMP280;52893;52.870;5.822;2023-05-16T03:56:52;101935.22;;;10.09
66113;BMP280;52893;52.870;5.822;2023-05-16T03:59:21;101930.94;;;10.03
66113;BMP280;52893;52.870;5.822;2023-05-16T04:01:49;101941.78;;;10.08
66113;BMP280;52893;52.870;5.822;2023-05-16T04:04:16;101925.75;;;10.07
66113;BMP280;52893;52.870;5.822;2023-05-16T04:06:43;101918.84;;;10.09
66113;BMP280;52893;52.870;5.822;2023-05-16T04:09:10;101928.09;;;10.13
66113;BMP280;52893;52.870;5.822;2023-05-16T04:11:38;101932.16;;;10.16
66113;BMP280;52893;52.870;5.822;2023-05-16T04:14:05;101931.84;;;10.17
66113;BMP280;52893;52.870;5.822;2023-05-16T04:16:34;101928.22;;;10.22
66113;BMP280;52893;52.870;5.822;2023-05-16T04:19:02;101936.63;;;10.25
66113;BMP280;52893;52.870;5.822;2023-05-16T04:21:29;101934.41;;;10.27
66113;BMP280;52893;52.870;5.822;2023-05-16T04:23:56;101936.03;;;10.29
66113;BMP280;52893;52.870;5.822;2023-05-16T04:26:24;101934.13;;;10.29
66113;BMP280;52893;52.870;5.822;2023-05-16T04:28:52;101943.94;;;10.30
66113;BMP280;52893;52.870;5.822;2023-05-16T04:31:20;101942.03;;;10.31
66113;BMP280;52893;52.870;5.822;2023-05-16T04:33:49;101937.88;;;10.33
66113;BMP280;52893;52.870;5.822;2023-05-16T04:36:17;101944.69;;;10.36
66113;BMP280;52893;52.870;5.822;2023-05-16T04:38:44;101948.72;;;10.38
66113;BMP280;52893;52.870;5.822;2023-05-16T04:41:12;101950.34;;;10.39
66113;BMP280;52893;52.870;5.822;2023-05-16T04:43:39;101935.97;;;10.34
66113;BMP280;52893;52.870;5.822;2023-05-16T04:46:07;101954.41;;;10.42
66113;BMP280;52893;52.870;5.822;2023-05-16T04:48:34;101953.59;;;10.41
66113;BMP280;52893;52.870;5.822;2023-05-16T04:51:03;101951.09;;;10.45
66113;BMP280;52893;52.870;5.822;2023-05-16T04:53:31;101950.50;;;10.48
66113;BMP280;52893;52.870;5.822;2023-05-16T04:55:58;101951.25;;;10.53
66113;BMP280;52893;52.870;5.822;2023-05-16T04:58:26;101954.13;;;10.62
66113;BMP280;52893;52.870;5.822;2023-05-16T05:00:53;101958.63;;;10.72
66113;BMP280;52893;52.870;5.822;2023-05-16T05:03:21;101963.69;;;10.78
66113;BMP280;52893;52.870;5.822;2023-05-16T05:05:48;101957.53;;;10.86
66113;BMP280;52893;52.870;5.822;2023-05-16T05:08:18;101953.41;;;10.89
66113;BMP280;52893;52.870;5.822;2023-05-16T05:10:45;101962.22;;;10.99
66113;BMP280;52893;52.870;5.822;2023-05-16T05:13:12;101959.91;;;11.06
66113;BMP280;52893;52.870;5.822;2023-05-16T05:15:39;101963.06;;;11.13
66113;BMP280;52893;52.870;5.822;2023-05-16T05:18:07;101968.63;;;11.22
66113;BMP280;52893;52.870;5.822;2023-05-16T05:20:34;101970.38;;;11.32
66113;BMP280;52893;52.870;5.822;2023-05-16T05:23:01;101962.41;;;11.35
66113;BMP280;52893;52.870;5.822;2023-05-16T05:25:30;101957.16;;;11.39
66113;BMP280;52893;52.870;5.822;2023-05-16T05:27:58;101968.09;;;11.39
66113;BMP280;52893;52.870;5.822;2023-05-16T05:30:25;101967.75;;;11.40
66113;BMP280;52893;52.870;5.822;2023-05-16T05:32:53;101966.03;;;11.44
66113;BMP280;52893;52.870;5.822;2023-05-16T05:35:21;101973.66;;;11.47
66113;BMP280;52893;52.870;5.822;2023-05-16T05:37:48;101979.81;;;11.53
66113;BMP280;52893;52.870;5.822;2023-05-16T05:40:15;101978.63;;;11.59
66113;BMP280;52893;52.870;5.822;2023-05-16T05:42:44;101976.91;;;11.63
66113;BMP280;52893;52.870;5.822;2023-05-16T05:45:11;101971.34;;;11.68
66113;BMP280;52893;52.870;5.822;2023-05-16T05:47:38;101979.13;;;11.75
66113;BMP280;52893;52.870;5.822;2023-05-16T05:50:07;101986.91;;;11.81
66113;BMP280;52893;52.870;5.822;2023-05-16T05:52:36;101994.94;;;11.91
66113;BMP280;52893;52.870;5.822;2023-05-16T05:55:04;101991.47;;;11.99
66113;BMP280;52893;52.870;5.822;2023-05-16T05:57:31;101993.97;;;12.09
66113;BMP280;52893;52.870;5.822;2023-05-16T06:00:00;102000.50;;;12.14
66113;BMP280;52893;52.870;5.822;2023-05-16T06:02:33;101992.75;;;12.16
66113;BMP280;52893;52.870;5.822;2023-05-16T06:05:01;101995.09;;;12.22
66113;BMP280;52893;52.870;5.822;2023-05-16T06:07:28;101999.53;;;12.32
66113;BMP280;52893;52.870;5.822;2023-05-16T06:09:55;101993.16;;;12.45
66113;BMP280;52893;52.870;5.822;2023-05-16T06:12:22;102001.34;;;12.58
66113;BMP280;52893;52.870;5.822;2023-05-16T06:14:49;102001.94;;;12.69
66113;BMP280;52893;52.870;5.822;2023-05-16T06:17:18;102003.94;;;12.77
66113;BMP280;52893;52.870;5.822;2023-05-16T06:19:45;102007.53;;;12.86
66113;BMP280;52893;52.870;5.822;2023-05-16T06:22:12;102011.97;;;12.96
66113;BMP280;52893;52.870;5.822;2023-05-16T06:24:39;102018.44;;;13.00
66113;BMP280;52893;52.870;5.822;2023-05-16T06:27:07;102015.38;;;13.01
66113;BMP280;52893;52.870;5.822;2023-05-16T06:29:35;102024.69;;;13.00
66113;BMP280;52893;52.870;5.822;2023-05-16T06:32:02;102023.47;;;13.07
66113;BMP280;52893;52.870;5.822;2023-05-16T06:34:31;102023.22;;;13.17
66113;BMP280;52893;52.870;5.822;2023-05-16T06:36:58;102020.47;;;13.17
66113;BMP280;52893;52.870;5.822;2023-05-16T06:39:27;102021.97;;;13.23
66113;BMP280;52893;52.870;5.822;2023-05-16T06:41:54;102028.31;;;13.40
66113;BMP280;52893;52.870;5.822;2023-05-16T06:44:22;102026.97;;;13.60
66113;BMP280;52893;52.870;5.822;2023-05-16T06:46:49;102025.50;;;13.63
66113;BMP280;52893;52.870;5.822;2023-05-16T06:49:16;102025.50;;;13.54
66113;BMP280;52893;52.870;5.822;2023-05-16T06:51:45;102021.72;;;13.41
66113;BMP280;52893;52.870;5.822;2023-05-16T06:54:12;102029.41;;;13.31
66113;BMP280;52893;52.870;5.822;2023-05-16T06:56:39;102032.28;;;13.26
66113;BMP280;52893;52.870;5.822;2023-05-16T06:59:07;102020.78;;;13.15
66113;BMP280;52893;52.870;5.822;2023-05-16T07:01:34;102026.06;;;13.12
66113;BMP280;52893;52.870;5.822;2023-05-16T07:04:01;102034.56;;;13.01
66113;BMP280;52893;52.870;5.822;2023-05-16T07:06:28;102034.50;;;12.93
66113;BMP280;52893;52.870;5.822;2023-05-16T07:08:57;102039.66;;;12.94
66113;BMP280;52893;52.870;5.822;2023-05-16T07:11:24;102040.22;;;12.83
66113;BMP280;52893;52.870;5.822;2023-05-16T07:13:51;102048.38;;;12.74
66113;BMP280;52893;52.870;5.822;2023-05-16T07:16:19;102044.53;;;12.75
66113;BMP280;52893;52.870;5.822;2023-05-16T07:18:46;102049.22;;;12.97
66113;BMP280;52893;52.870;5.822;2023-05-16T07:21:13;102050.50;;;13.22
66113;BMP280;52893;52.870;5.822;2023-05-16T07:23:41;102048.22;;;13.46
66113;BMP280;52893;52.870;5.822;2023-05-16T07:26:09;102054.75;;;13.67
66113;BMP280;52893;52.870;5.822;2023-05-16T07:28:36;102056.81;;;13.92
66113;BMP280;52893;52.870;5.822;2023-05-16T07:31:04;102051.34;;;14.10
66113;BMP280;52893;52.870;5.822;2023-05-16T07:33:33;102059.78;;;14.22
66113;BMP280;52893;52.870;5.822;2023-05-16T07:36:00;102048.44;;;14.32
66113;BMP280;52893;52.870;5.822;2023-05-16T07:38:27;102044.25;;;14.43
66113;BMP280;52893;52.870;5.822;2023-05-16T07:40:54;102051.72;;;14.68
66113;BMP280;52893;52.870;5.822;2023-05-16T07:43:23;102051.19;;;14.92
66113;BMP280;52893;52.870;5.822;2023-05-16T07:45:51;102053.59;;;15.02
66113;BMP280;52893;52.870;5.822;2023-05-16T07:48:18;102044.56;;;14.84
66113;BMP280;52893;52.870;5.822;2023-05-16T07:50:46;102059.78;;;14.56
66113;BMP280;52893;52.870;5.822;2023-05-16T07:53:13;102065.41;;;14.17
66113;BMP280;52893;52.870;5.822;2023-05-16T07:55:40;102067.22;;;13.82
66113;BMP280;52893;52.870;5.822;2023-05-16T07:58:07;102064.19;;;13.75
66113;BMP280;52893;52.870;5.822;2023-05-16T08:00:36;102065.44;;;13.77
66113;BMP280;52893;52.870;5.822;2023-05-16T08:03:03;102072.56;;;13.78
66113;BMP280;52893;52.870;5.822;2023-05-16T08:05:31;102068.38;;;13.81
66113;BMP280;52893;52.870;5.822;2023-05-16T08:07:58;102081.28;;;13.80
66113;BMP280;52893;52.870;5.822;2023-05-16T08:10:25;102086.31;;;13.95
66113;BMP280;52893;52.870;5.822;2023-05-16T08:12:53;102090.13;;;14.17
66113;BMP280;52893;52.870;5.822;2023-05-16T08:15:20;102080.31;;;14.50
66113;BMP280;52893;52.870;5.822;2023-05-16T08:17:49;102078.06;;;14.86
66113;BMP280;52893;52.870;5.822;2023-05-16T08:20:16;102075.53;;;15.28
66113;BMP280;52893;52.870;5.822;2023-05-16T08:22:43;102074.28;;;15.63
66113;BMP280;52893;52.870;5.822;2023-05-16T08:25:10;102084.34;;;15.88
66113;BMP280;52893;52.870;5.822;2023-05-16T08:27:38;102079.53;;;16.06
66113;BMP280;52893;52.870;5.822;2023-05-16T08:30:06;102085.59;;;16.20
66113;BMP280;52893;52.870;5.822;2023-05-16T08:32:34;102079.28;;;16.40
66113;BMP280;52893;52.870;5.822;2023-05-16T08:35:04;102078.38;;;16.69
66113;BMP280;52893;52.870;5.822;2023-05-16T08:37:31;102081.25;;;16.93
66113;BMP280;52893;52.870;5.822;2023-05-16T08:39:58;102080.59;;;17.21
66113;BMP280;52893;52.870;5.822;2023-05-16T08:42:25;102079.97;;;17.48
66113;BMP280;52893;52.870;5.822;2023-05-16T08:44:53;102060.50;;;17.56
66113;BMP280;52893;52.870;5.822;2023-05-16T08:47:21;102068.78;;;17.56
66113;BMP280;52893;52.870;5.822;2023-05-16T08:49:51;102071.88;;;17.55
66113;BMP280;52893;52.870;5.822;2023-05-16T08:52:20;102060.72;;;17.39
66113;BMP280;52893;52.870;5.822;2023-05-16T08:54:49;102057.22;;;17.06
66113;BMP280;52893;52.870;5.822;2023-05-16T08:57:17;102066.25;;;16.82
66113;BMP280;52893;52.870;5.822;2023-05-16T08:59:45;102066.34;;;16.53
66113;BMP280;52893;52.870;5.822;2023-05-16T09:02:13;102061.03;;;16.36
66113;BMP280;52893;52.870;5.822;2023-05-16T09:04:40;102060.19;;;16.56
66113;BMP280;52893;52.870;5.822;2023-05-16T09:07:08;102057.75;;;16.75
66113;BMP280;52893;52.870;5.822;2023-05-16T09:09:36;102057.16;;;16.49
66113;BMP280;52893;52.870;5.822;2023-05-16T09:12:04;102066.38;;;16.32
66113;BMP280;52893;52.870;5.822;2023-05-16T09:14:31;102068.66;;;16.51
66113;BMP280;52893;52.870;5.822;2023-05-16T09:17:02;102063.28;;;16.54
66113;BMP280;52893;52.870;5.822;2023-05-16T09:19:37;102070.41;;;16.35
66113;BMP280;52893;52.870;5.822;2023-05-16T09:22:06;102070.81;;;16.25
66113;BMP280;52893;52.870;5.822;2023-05-16T09:24:38;102077.38;;;16.12
66113;BMP280;52893;52.870;5.822;2023-05-16T09:27:10;102082.06;;;15.90
66113;BMP280;52893;52.870;5.822;2023-05-16T09:29:39;102084.44;;;15.71
66113;BMP280;52893;52.870;5.822;2023-05-16T09:32:11;102077.00;;;15.72
66113;BMP280;52893;52.870;5.822;2023-05-16T09:34:42;102085.56;;;15.70
66113;BMP280;52893;52.870;5.822;2023-05-16T09:37:09;102083.38;;;15.84
66113;BMP280;52893;52.870;5.822;2023-05-16T09:39:40;102088.88;;;15.84
66113;BMP280;52893;52.870;5.822;2023-05-16T09:42:12;102090.28;;;15.99
66113;BMP280;52893;52.870;5.822;2023-05-16T09:44:40;102088.56;;;15.86
66113;BMP280;52893;52.870;5.822;2023-05-16T09:47:07;102093.41;;;15.60
66113;BMP280;52893;52.870;5.822;2023-05-16T09:49:35;102089.09;;;15.79
66113;BMP280;52893;52.870;5.822;2023-05-16T09:52:04;102093.09;;;16.11
66113;BMP280;52893;52.870;5.822;2023-05-16T09:54:32;102097.69;;;16.69
66113;BMP280;52893;52.870;5.822;2023-05-16T09:57:01;102080.97;;;17.31
66113;BMP280;52893;52.870;5.822;2023-05-16T09:59:28;102089.59;;;17.30
66113;BMP280;52893;52.870;5.822;2023-05-16T10:01:57;102087.03;;;16.80
66113;BMP280;52893;52.870;5.822;2023-05-16T10:04:25;102104.41;;;16.60
66113;BMP280;52893;52.870;5.822;2023-05-16T10:06:54;102093.53;;;16.63
66113;BMP280;52893;52.870;5.822;2023-05-16T10:09:22;102095.03;;;17.05
66113;BMP280;52893;52.870;5.822;2023-05-16T10:11:51;102101.44;;;17.18
66113;BMP280;52893;52.870;5.822;2023-05-16T10:14:21;102097.34;;;17.03
66113;BMP280;52893;52.870;5.822;2023-05-16T10:16:49;102103.72;;;16.83
66113;BMP280;52893;52.870;5.822;2023-05-16T10:19:19;102110.88;;;16.64
66113;BMP280;52893;52.870;5.822;2023-05-16T10:21:50;102104.19;;;16.52
66113;BMP280;52893;52.870;5.822;2023-05-16T10:24:23;102106.66;;;16.45
66113;BMP280;52893;52.870;5.822;2023-05-16T10:26:52;102106.03;;;16.61
66113;BMP280;52893;52.870;5.822;2023-05-16T10:29:21;102104.41;;;16.80
66113;BMP280;52893;52.870;5.822;2023-05-16T10:31:49;102091.25;;;16.98
66113;BMP280;52893;52.870;5.822;2023-05-16T10:34:17;102097.44;;;16.95
66113;BMP280;52893;52.870;5.822;2023-05-16T10:36:44;102097.16;;;17.21
66113;BMP280;52893;52.870;5.822;2023-05-16T10:39:12;102090.06;;;17.68
66113;BMP280;52893;52.870;5.822;2023-05-16T10:41:41;102089.91;;;18.13
66113;BMP280;52893;52.870;5.822;2023-05-16T10:44:12;102091.66;;;18.05
66113;BMP280;52893;52.870;5.822;2023-05-16T10:46:42;102095.69;;;17.84
66113;BMP280;52893;52.870;5.822;2023-05-16T10:49:19;102089.25;;;17.31
66113;BMP280;52893;52.870;5.822;2023-05-16T10:52:02;102091.06;;;17.03
66113;BMP280;52893;52.870;5.822;2023-05-16T10:54:34;102090.50;;;16.89
66113;BMP280;52893;52.870;5.822;2023-05-16T10:57:06;102091.66;;;16.76
66113;BMP280;52893;52.870;5.822;2023-05-16T10:59:43;102099.66;;;16.48
66113;BMP280;52893;52.870;5.822;2023-05-16T11:02:29;102122.16;;;16.09
66113;BMP280;52893;52.870;5.822;2023-05-16T11:04:58;102144.31;;;15.74
66113;BMP280;52893;52.870;5.822;2023-05-16T11:07:30;102152.09;;;15.17
66113;BMP280;52893;52.870;5.822;2023-05-16T11:10:03;102158.38;;;14.49
66113;BMP280;52893;52.870;5.822;2023-05-16T11:12:37;102154.81;;;13.92
66113;BMP280;52893;52.870;5.822;2023-05-16T11:15:23;102149.56;;;13.51
66113;BMP280;52893;52.870;5.822;2023-05-16T11:18:04;102149.47;;;13.34
66113;BMP280;52893;52.870;5.822;2023-05-16T11:20:33;102150.13;;;13.39
66113;BMP280;52893;52.870;5.822;2023-05-16T11:23:22;102145.25;;;13.28
66113;BMP280;52893;52.870;5.822;2023-05-16T11:25:52;102147.59;;;13.21
66113;BMP280;52893;52.870;5.822;2023-05-16T11:28:20;102142.84;;;13.13
66113;BMP280;52893;52.870;5.822;2023-05-16T11:30:49;102152.19;;;13.12
66113;BMP280;52893;52.870;5.822;2023-05-16T11:33:18;102151.16;;;13.21
66113;BMP280;52893;52.870;5.822;2023-05-16T11:35:59;102152.03;;;13.30
66113;BMP280;52893;52.870;5.822;2023-05-16T11:38:29;102154.31;;;13.37
66113;BMP280;52893;52.870;5.822;2023-05-16T11:41:02;102147.94;;;13.50
66113;BMP280;52893;52.870;5.822;2023-05-16T11:43:36;102140.31;;;13.69
66113;BMP280;52893;52.870;5.822;2023-05-16T11:46:03;102142.69;;;13.84
66113;BMP280;52893;52.870;5.822;2023-05-16T11:48:32;102140.78;;;13.93
66113;BMP280;52893;52.870;5.822;2023-05-16T11:50:59;102139.09;;;14.23
66113;BMP280;52893;52.870;5.822;2023-05-16T11:53:27;102139.78;;;14.89
66113;BMP280;52893;52.870;5.822;2023-05-16T11:55:55;102123.91;;;15.37
66113;BMP280;52893;52.870;5.822;2023-05-16T11:58:25;102137.97;;;15.82
66113;BMP280;52893;52.870;5.822;2023-05-16T12:00:53;102133.13;;;16.38
66113;BMP280;52893;52.870;5.822;2023-05-16T12:03:20;102140.75;;;16.82
66113;BMP280;52893;52.870;5.822;2023-05-16T12:05:50;102126.00;;;17.11
66113;BMP280;52893;52.870;5.822;2023-05-16T12:08:19;102124.53;;;17.14
66113;BMP280;52893;52.870;5.822;2023-05-16T12:10:48;102099.75;;;17.05
66113;BMP280;52893;52.870;5.822;2023-05-16T12:13:17;102111.25;;;17.52
66113;BMP280;52893;52.870;5.822;2023-05-16T12:15:44;102117.56;;;17.65
66113;BMP280;52893;52.870;5.822;2023-05-16T12:18:12;102122.28;;;17.64
66113;BMP280;52893;52.870;5.822;2023-05-16T12:20:39;102123.53;;;17.54
66113;BMP280;52893;52.870;5.822;2023-05-16T12:23:11;102109.41;;;17.80
66113;BMP280;52893;52.870;5.822;2023-05-16T12:25:44;102112.94;;;18.17
66113;BMP280;52893;52.870;5.822;2023-05-16T12:28:13;102122.13;;;18.61
66113;BMP280;52893;52.870;5.822;2023-05-16T12:30:42;102121.50;;;18.67
66113;BMP280;52893;52.870;5.822;2023-05-16T12:33:11;102121.50;;;18.67
66113;BMP280;52893;52.870;5.822;2023-05-16T12:35:40;102120.69;;;18.67
66113;BMP280;52893;52.870;5.822;2023-05-16T12:38:09;102135.66;;;18.78
66113;BMP280;52893;52.870;5.822;2023-05-16T12:40:38;102130.31;;;18.85
66113;BMP280;52893;52.870;5.822;2023-05-16T12:43:12;102133.63;;;18.91
66113;BMP280;52893;52.870;5.822;2023-05-16T12:45:40;102133.53;;;18.87
66113;BMP280;52893;52.870;5.822;2023-05-16T12:48:11;102128.47;;;18.89
66113;BMP280;52893;52.870;5.822;2023-05-16T12:50:39;102125.41;;;18.94
66113;BMP280;52893;52.870;5.822;2023-05-16T12:53:11;102132.56;;;18.67
66113;BMP280;52893;52.870;5.822;2023-05-16T12:55:41;102126.25;;;18.27
66113;BMP280;52893;52.870;5.822;2023-05-16T12:58:09;102128.53;;;17.85
66113;BMP280;52893;52.870;5.822;2023-05-16T13:00:37;102111.69;;;17.54
66113;BMP280;52893;52.870;5.822;2023-05-16T13:03:05;102110.72;;;17.26
66113;BMP280;52893;52.870;5.822;2023-05-16T13:05:33;102125.19;;;17.11
66113;BMP280;52893;52.870;5.822;2023-05-16T13:08:00;102124.00;;;16.99
66113;BMP280;52893;52.870;5.822;2023-05-16T13:10:28;102123.63;;;16.89
66113;BMP280;52893;52.870;5.822;2023-05-16T13:12:57;102135.81;;;16.67
66113;BMP280;52893;52.870;5.822;2023-05-16T13:15:24;102129.72;;;16.41
66113;BMP280;52893;52.870;5.822;2023-05-16T13:17:52;102137.50;;;16.18
66113;BMP280;52893;52.870;5.822;2023-05-16T13:20:19;102131.41;;;16.04
66113;BMP280;52893;52.870;5.822;2023-05-16T13:22:46;102136.69;;;15.88
66113;BMP280;52893;52.870;5.822;2023-05-16T13:25:13;102138.63;;;15.88
66113;BMP280;52893;52.870;5.822;2023-05-16T13:27:41;102134.41;;;16.20
66113;BMP280;52893;52.870;5.822;2023-05-16T13:30:10;102131.47;;;16.45
66113;BMP280;52893;52.870;5.822;2023-05-16T13:32:37;102129.72;;;16.82
66113;BMP280;52893;52.870;5.822;2023-05-16T13:35:05;102137.00;;;17.32
66113;BMP280;52893;52.870;5.822;2023-05-16T13:37:33;102142.94;;;17.34
66113;BMP280;52893;52.870;5.822;2023-05-16T13:40:00;102142.66;;;17.15
66113;BMP280;52893;52.870;5.822;2023-05-16T13:42:29;102130.91;;;16.93
66113;BMP280;52893;52.870;5.822;2023-05-16T13:44:57;102135.06;;;16.79
66113;BMP280;52893;52.870;5.822;2023-05-16T13:47:25;102132.88;;;16.72
66113;BMP280;52893;52.870;5.822;2023-05-16T13:49:52;102128.72;;;16.78
66113;BMP280;52893;52.870;5.822;2023-05-16T13:52:19;102131.72;;;16.73
66113;BMP280;52893;52.870;5.822;2023-05-16T13:54:47;102123.22;;;16.78
66113;BMP280;52893;52.870;5.822;2023-05-16T13:57:14;102130.91;;;16.93
66113;BMP280;52893;52.870;5.822;2023-05-16T13:59:41;102133.19;;;16.91
66113;BMP280;52893;52.870;5.822;2023-05-16T14:02:08;102122.75;;;17.09
66113;BMP280;52893;52.870;5.822;2023-05-16T14:04:37;102135.56;;;17.14